createdAt,value
2023-02-11T00:01:33.464Z,18.62
2023-02-11T00:04:01.944Z,18.62
2023-02-11T00:06:31.856Z,18.62
2023-02-11T00:08:59.398Z,18.64
2023-02-11T00:11:30.920Z,18.64
2023-02-11T00:14:00.214Z,18.64
2023-02-11T00:16:27.957Z,18.64
2023-02-11T00:18:55.798Z,18.64
2023-02-11T00:21:25.969Z,18.65
2023-02-11T00:23:54.965Z,18.65
2023-02-11T00:26:25.810Z,18.65
2023-02-11T00:28:53.702Z,18.65
2023-02-11T00:31:23.207Z,18.65
2023-02-11T00:33:50.682Z,18.64
2023-02-11T00:36:20.809Z,18.64
2023-02-11T00:38:49.970Z,18.64
2023-02-11T00:41:18.243Z,18.63
2023-02-11T00:43:46.159Z,18.63
2023-02-11T00:46:14.029Z,18.62
2023-02-11T00:48:41.552Z,18.60
2023-02-11T00:51:09.532Z,18.60
2023-02-11T00:53:37.097Z,18.59
2023-02-11T00:56:04.833Z,18.59
2023-02-11T00:58:32.154Z,18.59
2023-02-11T01:00:59.581Z,18.58
2023-02-11T01:03:45.516Z,18.56
2023-02-11T01:09:39.127Z,18.57
2023-02-11T01:12:06.626Z,18.55
2023-02-11T01:14:33.942Z,18.53
2023-02-11T01:17:01.246Z,18.54
2023-02-11T01:19:28.627Z,18.53
2023-02-11T01:21:55.926Z,18.52
2023-02-11T01:24:23.173Z,18.52
2023-02-11T01:26:50.489Z,18.51
2023-02-11T01:29:17.782Z,18.51
2023-02-11T01:31:45.089Z,18.51
2023-02-11T01:34:12.625Z,18.51
2023-02-11T01:36:40.241Z,18.50
2023-02-11T01:39:08.763Z,18.49
2023-02-11T01:41:37.019Z,18.49
2023-02-11T01:44:27.552Z,18.49
2023-02-11T01:46:55.689Z,18.48
2023-02-11T01:49:32.930Z,18.47
2023-02-11T01:52:23.950Z,18.46
2023-02-11T01:55:13.195Z,18.47
2023-02-11T01:57:44.641Z,18.47
2023-02-11T02:00:21.601Z,18.46
2023-02-11T02:03:05.220Z,18.46
2023-02-11T02:05:35.438Z,18.47
2023-02-11T02:08:23.806Z,18.45
2023-02-11T02:10:56.458Z,18.45
2023-02-11T02:13:25.276Z,18.44
2023-02-11T02:15:55.901Z,18.45
2023-02-11T02:18:41.745Z,18.44
2023-02-11T02:21:36.064Z,18.44
2023-02-11T02:24:34.125Z,18.44
2023-02-11T02:27:16.013Z,18.43
2023-02-11T02:30:04.882Z,18.43
2023-02-11T02:32:47.767Z,18.43
2023-02-11T02:35:30.206Z,18.43
2023-02-11T02:38:10.197Z,18.42
2023-02-11T02:40:52.534Z,18.42
2023-02-11T02:43:21.618Z,18.41
2023-02-11T02:45:49.267Z,18.40
2023-02-11T02:48:29.596Z,18.40
2023-02-11T02:51:10.733Z,18.40
2023-02-11T02:53:48.651Z,18.38
2023-02-11T02:56:59.415Z,18.38
2023-02-11T02:59:45.365Z,18.38
2023-02-11T03:02:29.229Z,18.38
2023-02-11T03:05:05.374Z,18.38
2023-02-11T03:07:41.662Z,18.38
2023-02-11T03:10:31.444Z,18.36
2023-02-11T03:12:59.882Z,18.36
2023-02-11T03:15:30.997Z,18.36
2023-02-11T03:18:01.095Z,18.35
2023-02-11T03:20:33.105Z,18.35
2023-02-11T03:23:21.252Z,18.35
2023-02-11T03:26:11.441Z,18.35
2023-02-11T03:29:03.428Z,18.35
2023-02-11T03:31:34.419Z,18.34
2023-02-11T03:34:08.799Z,18.34
2023-02-11T03:36:49.471Z,18.34
2023-02-11T03:39:21.357Z,18.33
2023-02-11T03:41:50.638Z,18.33
2023-02-11T03:44:19.940Z,18.34
2023-02-11T03:46:51.505Z,18.33
2023-02-11T03:49:21.785Z,18.32
2023-02-11T03:51:52.693Z,18.32
2023-02-11T03:54:27.647Z,18.32
2023-02-11T03:56:57.783Z,18.32
2023-02-11T03:59:25.533Z,18.31
2023-02-11T04:01:53.166Z,18.31
2023-02-11T04:04:20.793Z,18.32
2023-02-11T04:06:48.104Z,18.30
2023-02-11T04:09:15.484Z,18.29
2023-02-11T04:11:42.712Z,18.28
2023-02-11T04:14:10.004Z,18.28
2023-02-11T04:16:37.432Z,18.28
2023-02-11T04:19:05.180Z,18.27
2023-02-11T04:21:32.457Z,18.27
2023-02-11T04:23:59.767Z,18.25
2023-02-11T04:26:27.131Z,18.25
2023-02-11T04:28:54.281Z,18.24
2023-02-11T04:31:21.613Z,18.24
2023-02-11T04:33:48.905Z,18.24
2023-02-11T04:36:16.122Z,18.24
2023-02-11T04:38:43.395Z,18.24
2023-02-11T04:41:10.682Z,18.23
2023-02-11T04:43:38.062Z,18.23
2023-02-11T04:46:05.536Z,18.23
2023-02-11T04:48:32.880Z,18.23
2023-02-11T04:51:00.176Z,18.23
2023-02-11T04:53:27.653Z,18.22
2023-02-11T04:55:55.160Z,18.22
2023-02-11T04:58:22.353Z,18.22
2023-02-11T05:00:50.034Z,18.22
2023-02-11T05:03:17.667Z,18.22
2023-02-11T05:05:44.998Z,18.21
2023-02-11T05:08:12.747Z,18.22
2023-02-11T05:10:40.106Z,18.21
2023-02-11T05:13:07.479Z,18.20
2023-02-11T05:15:34.798Z,18.19
2023-02-11T05:18:02.100Z,18.18
2023-02-11T05:20:29.430Z,18.19
2023-02-11T05:22:56.764Z,18.18
2023-02-11T05:25:24.012Z,18.18
2023-02-11T05:27:51.377Z,18.17
2023-02-11T05:30:18.755Z,18.16
2023-02-11T05:32:46.112Z,18.15
2023-02-11T05:35:13.756Z,18.14
2023-02-11T05:37:41.062Z,18.14
2023-02-11T05:40:08.885Z,18.14
2023-02-11T05:42:36.251Z,18.13
2023-02-11T05:45:03.765Z,18.12
2023-02-11T05:47:30.959Z,18.11
2023-02-11T05:49:58.226Z,18.10
2023-02-11T05:52:25.613Z,18.10
2023-02-11T05:54:52.905Z,18.10
2023-02-11T05:57:20.189Z,18.11
2023-02-11T05:59:47.530Z,18.11
2023-02-11T06:02:14.982Z,18.10
2023-02-11T06:04:42.325Z,18.11
2023-02-11T06:07:09.649Z,18.11
2023-02-11T06:09:37.139Z,18.10
2023-02-11T06:12:05.063Z,18.10
2023-02-11T06:14:34.194Z,18.09
2023-02-11T06:17:01.691Z,18.09
2023-02-11T06:19:28.977Z,18.08
2023-02-11T06:21:56.784Z,18.08
2023-02-11T06:24:51.080Z,18.08
2023-02-11T06:27:12.705Z,18.07
2023-02-11T06:29:39.988Z,18.06
2023-02-11T06:32:11.640Z,18.06
2023-02-11T06:34:43.266Z,18.05
2023-02-11T06:37:10.518Z,18.04
2023-02-11T06:39:37.916Z,18.04
2023-02-11T06:42:07.925Z,18.04
2023-02-11T06:44:35.314Z,18.03
2023-02-11T06:47:02.575Z,18.02
2023-02-11T06:49:30.032Z,18.02
2023-02-11T06:51:57.367Z,18.01
2023-02-11T06:54:24.683Z,18.01
2023-02-11T06:56:52.105Z,18.00
2023-02-11T06:59:20.756Z,17.99
2023-02-11T07:01:48.618Z,17.99
2023-02-11T07:04:16.267Z,17.98
2023-02-11T07:06:43.623Z,17.99
2023-02-11T07:09:10.924Z,17.98
2023-02-11T07:11:38.112Z,17.99
2023-02-11T07:14:11.167Z,17.99
2023-02-11T07:16:38.660Z,18.00
2023-02-11T07:19:06.022Z,17.99
2023-02-11T07:21:33.221Z,17.99
2023-02-11T07:24:00.450Z,18.00
2023-02-11T07:26:28.919Z,18.00
2023-02-11T07:28:56.396Z,18.00
2023-02-11T07:31:26.776Z,18.00
2023-02-11T07:33:56.629Z,17.99
2023-02-11T07:36:23.853Z,17.99
2023-02-11T07:38:51.077Z,17.99
2023-02-11T07:41:21.200Z,17.99
2023-02-11T07:43:49.043Z,17.99
2023-02-11T07:46:27.608Z,17.99
2023-02-11T07:48:55.540Z,17.99
2023-02-11T07:51:28.496Z,17.98
2023-02-11T07:53:57.625Z,17.98
2023-02-11T07:56:25.039Z,17.98
2023-02-11T07:58:52.320Z,17.97
2023-02-11T08:01:24.958Z,17.97
2023-02-11T08:03:53.127Z,17.96
2023-02-11T08:06:22.670Z,17.96
2023-02-11T08:08:50.877Z,17.95
2023-02-11T08:11:20.372Z,17.95
2023-02-11T08:13:48.126Z,17.95
2023-02-11T08:16:27.305Z,17.94
2023-02-11T08:18:57.681Z,17.95
2023-02-11T08:21:25.923Z,17.94
2023-02-11T08:23:53.811Z,17.94
2023-02-11T08:26:27.288Z,17.94
2023-02-11T08:28:56.365Z,17.93
2023-02-11T08:31:26.933Z,17.94
2023-02-11T08:33:57.861Z,17.93
2023-02-11T08:36:29.155Z,17.95
2023-02-11T08:39:17.934Z,17.95
2023-02-11T08:41:48.930Z,17.96
2023-02-11T08:44:17.713Z,17.97
2023-02-11T08:46:45.008Z,17.98
2023-02-11T08:49:12.383Z,17.98
2023-02-11T08:51:40.073Z,17.97
2023-02-11T08:54:09.589Z,17.99
2023-02-11T08:56:38.190Z,17.98
2023-02-11T08:59:06.214Z,18.00
2023-02-11T09:01:42.422Z,18.02
2023-02-11T09:04:10.576Z,18.04
2023-02-11T09:06:37.822Z,17.98
2023-02-11T09:09:05.360Z,17.85
2023-02-11T09:11:35.215Z,17.69
2023-02-11T09:14:04.392Z,17.53
2023-02-11T09:16:34.766Z,17.43
2023-02-11T09:19:03.802Z,17.43
2023-02-11T09:21:31.203Z,17.49
2023-02-11T09:23:58.750Z,17.57
2023-02-11T09:26:31.778Z,17.64
2023-02-11T09:28:59.842Z,17.71
2023-02-11T09:31:29.589Z,17.77
2023-02-11T09:33:59.971Z,17.81
2023-02-11T09:36:30.302Z,17.84
2023-02-11T09:39:02.249Z,17.89
2023-02-11T09:41:39.483Z,17.92
2023-02-11T09:44:09.684Z,17.95
2023-02-11T09:46:42.229Z,17.98
2023-02-11T09:49:21.950Z,17.99
2023-02-11T09:51:57.133Z,18.01
2023-02-11T09:54:34.566Z,18.02
2023-02-11T09:57:02.066Z,18.04
2023-02-11T09:59:29.384Z,18.04
2023-02-11T10:02:05.106Z,18.06
2023-02-11T10:05:00.813Z,18.06
2023-02-11T10:07:54.055Z,18.06
2023-02-11T10:10:45.412Z,18.08
2023-02-11T10:13:43.757Z,18.09
2023-02-11T10:16:23.208Z,18.10
2023-02-11T10:19:08.704Z,18.10
2023-02-11T10:21:50.610Z,18.11
2023-02-11T10:24:18.397Z,18.11
2023-02-11T10:26:46.495Z,18.12
2023-02-11T10:29:42.180Z,18.13
2023-02-11T10:32:33.431Z,18.13
2023-02-11T10:35:10.433Z,18.13
2023-02-11T10:37:37.942Z,18.13
2023-02-11T10:40:07.505Z,18.14
2023-02-11T10:42:35.915Z,18.14
2023-02-11T10:45:07.296Z,18.19
2023-02-11T10:47:39.684Z,18.32
2023-02-11T10:50:24.172Z,18.33
2023-02-11T10:52:51.640Z,18.31
2023-02-11T10:55:26.126Z,18.29
2023-02-11T10:57:57.942Z,18.28
2023-02-11T11:00:36.201Z,18.27
2023-02-11T11:03:25.540Z,18.26
2023-02-11T11:05:58.485Z,18.26
2023-02-11T11:08:41.220Z,18.26
2023-02-11T11:11:12.256Z,18.27
2023-02-11T11:13:41.803Z,18.16
2023-02-11T11:16:12.105Z,18.09
2023-02-11T11:18:45.221Z,18.10
2023-02-11T11:21:36.641Z,18.12
2023-02-11T11:24:04.544Z,18.13
2023-02-11T11:26:44.707Z,18.14
2023-02-11T11:29:18.800Z,18.16
2023-02-11T11:31:56.991Z,18.19
2023-02-11T11:34:30.147Z,18.20
2023-02-11T11:36:58.512Z,18.21
2023-02-11T11:39:29.815Z,18.20
2023-02-11T11:42:00.606Z,18.20
2023-02-11T11:44:37.571Z,18.20
2023-02-11T11:47:31.470Z,18.22
2023-02-11T11:50:19.506Z,18.22
2023-02-11T11:52:54.778Z,18.22
2023-02-11T11:55:26.972Z,18.21
2023-02-11T11:57:54.255Z,18.22
2023-02-11T12:00:32.452Z,18.22
2023-02-11T12:03:21.304Z,18.22
2023-02-11T12:06:11.801Z,18.23
2023-02-11T12:09:16.975Z,18.23
2023-02-11T12:11:59.464Z,18.25
2023-02-11T12:14:53.328Z,18.26
2023-02-11T12:17:39.018Z,18.26
2023-02-11T12:20:32.945Z,18.26
2023-02-11T12:23:11.506Z,18.28
2023-02-11T12:25:54.337Z,18.27
2023-02-11T12:28:24.472Z,18.29
2023-02-11T12:30:57.815Z,18.29
2023-02-11T12:33:38.454Z,18.28
2023-02-11T12:36:12.968Z,18.30
2023-02-11T12:38:43.259Z,18.31
2023-02-11T12:42:01.825Z,18.29
2023-02-11T12:44:32.229Z,18.31
2023-02-11T12:47:14.227Z,18.31
2023-02-11T12:49:49.818Z,18.31
2023-02-11T12:52:44.501Z,18.32
2023-02-11T12:55:24.368Z,18.33
2023-02-11T12:57:55.024Z,18.35
2023-02-11T13:00:45.364Z,18.34
2023-02-11T13:03:18.954Z,18.34
2023-02-11T13:05:54.198Z,18.35
2023-02-11T13:08:50.458Z,18.35
2023-02-11T13:11:22.973Z,18.35
2023-02-11T13:13:53.042Z,18.34
2023-02-11T13:16:39.530Z,18.35
2023-02-11T13:19:26.819Z,18.35
2023-02-11T13:22:09.395Z,18.34
2023-02-11T13:24:53.721Z,18.35
2023-02-11T13:27:21.358Z,18.35
2023-02-11T13:30:04.322Z,18.37
2023-02-11T13:32:56.701Z,18.37
2023-02-11T13:35:33.000Z,18.37
2023-02-11T13:38:13.220Z,18.39
2023-02-11T13:40:41.161Z,18.40
2023-02-11T13:43:21.998Z,18.40
2023-02-11T13:45:51.517Z,18.41
2023-02-11T13:48:31.684Z,18.41
2023-02-11T13:51:02.809Z,18.42
2023-02-11T13:53:44.551Z,18.40
2023-02-11T13:56:32.443Z,18.42
2023-02-11T13:59:02.458Z,18.41
2023-02-11T14:02:10.969Z,18.41
2023-02-11T14:05:22.854Z,18.42
2023-02-11T14:08:33.480Z,18.40
2023-02-11T14:11:12.317Z,18.41
2023-02-11T14:13:48.482Z,18.42
2023-02-11T14:16:31.587Z,18.41
2023-02-11T14:19:03.106Z,18.42
2023-02-11T14:21:30.473Z,18.42
2023-02-11T14:24:10.888Z,18.42
2023-02-11T14:26:49.510Z,18.42
2023-02-11T14:29:34.462Z,18.42
2023-02-11T14:32:23.311Z,18.42
2023-02-11T14:35:02.935Z,18.42
2023-02-11T14:37:36.115Z,18.40
2023-02-11T14:40:06.439Z,18.42
2023-02-11T14:42:37.249Z,18.39
2023-02-11T14:45:08.696Z,18.40
2023-02-11T14:47:45.278Z,18.42
2023-02-11T14:50:32.100Z,18.41
2023-02-11T14:53:01.874Z,18.41
2023-02-11T14:55:33.521Z,18.42
2023-02-11T14:58:18.947Z,18.42
2023-02-11T15:01:00.931Z,18.40
2023-02-11T15:03:38.831Z,18.42
2023-02-11T15:06:06.472Z,18.42
2023-02-11T15:08:38.333Z,18.42
2023-02-11T15:11:11.826Z,18.43
2023-02-11T15:13:39.392Z,18.43
2023-02-11T15:16:10.094Z,18.43
2023-02-11T15:18:42.062Z,18.43
2023-02-11T15:21:10.412Z,18.42
2023-02-11T15:23:39.019Z,18.42
2023-02-11T15:26:21.369Z,18.42
2023-02-11T15:28:51.934Z,18.42
2023-02-11T15:31:23.389Z,18.42
2023-02-11T15:33:52.157Z,18.39
2023-02-11T15:36:28.512Z,18.40
2023-02-11T15:39:32.960Z,18.39
2023-02-11T15:42:38.064Z,18.39
2023-02-11T15:45:14.588Z,18.39
2023-02-11T15:47:54.281Z,18.39
2023-02-11T15:50:25.554Z,18.39
2023-02-11T15:52:55.156Z,18.39
2023-02-11T15:55:23.560Z,18.41
2023-02-11T15:58:02.041Z,18.41
2023-02-11T16:00:36.123Z,18.42
2023-02-11T16:03:04.675Z,18.42
2023-02-11T16:05:35.469Z,18.42
2023-02-11T16:08:25.648Z,18.42
2023-02-11T16:11:03.351Z,18.43
2023-02-11T16:13:34.742Z,18.43
2023-02-11T16:16:18.219Z,18.43
2023-02-11T16:19:03.345Z,18.43
2023-02-11T16:21:39.301Z,18.44
2023-02-11T16:24:21.592Z,18.42
2023-02-11T16:26:55.589Z,18.43
2023-02-11T16:29:31.834Z,18.45
2023-02-11T16:32:09.645Z,18.44
2023-02-11T16:34:37.343Z,18.45
2023-02-11T16:37:06.169Z,18.45
2023-02-11T16:39:33.942Z,18.44
2023-02-11T16:42:01.588Z,18.44
2023-02-11T16:44:29.472Z,18.45
2023-02-11T16:47:00.062Z,18.45
2023-02-11T16:49:33.885Z,18.44
2023-02-11T16:52:05.904Z,18.43
2023-02-11T16:54:33.951Z,18.44
2023-02-11T16:57:05.988Z,18.44
2023-02-11T16:59:33.306Z,18.43
2023-02-11T17:02:00.714Z,18.43
2023-02-11T17:04:31.554Z,18.43
2023-02-11T17:06:59.406Z,18.43
2023-02-11T17:09:30.525Z,18.43
2023-02-11T17:11:58.856Z,18.43
2023-02-11T17:14:26.241Z,18.44
2023-02-11T17:16:53.628Z,18.44
2023-02-11T17:19:21.824Z,18.45
2023-02-11T17:21:51.460Z,18.45
2023-02-11T17:24:20.348Z,18.45
2023-02-11T17:26:48.396Z,18.45
2023-02-11T17:29:21.020Z,18.45
2023-02-11T17:31:48.820Z,18.46
2023-02-11T17:34:16.872Z,18.46
2023-02-11T17:36:44.461Z,18.44
2023-02-11T17:39:12.319Z,18.45
2023-02-11T17:41:40.592Z,18.45
2023-02-11T17:44:09.017Z,18.45
2023-02-11T17:46:36.761Z,18.46
2023-02-11T17:49:04.476Z,18.47
2023-02-11T17:51:37.679Z,18.48
2023-02-11T17:54:06.833Z,18.49
2023-02-11T17:56:37.076Z,18.50
2023-02-11T17:59:06.274Z,18.50
2023-02-11T18:01:34.372Z,18.52
2023-02-11T18:04:02.576Z,18.53
2023-02-11T18:06:30.331Z,18.55
2023-02-11T18:08:59.658Z,18.56
2023-02-11T18:11:27.919Z,18.57
2023-02-11T18:13:55.441Z,18.58
2023-02-11T18:16:25.175Z,18.58
2023-02-11T18:18:52.664Z,18.59
2023-02-11T18:21:21.806Z,18.60
2023-02-11T18:23:49.698Z,18.61
2023-02-11T18:26:19.734Z,18.63
2023-02-11T18:28:50.178Z,18.64
2023-02-11T18:31:24.698Z,18.65
2023-02-11T18:33:58.580Z,18.64
2023-02-11T18:36:26.236Z,18.64
2023-02-11T18:38:54.379Z,18.65
2023-02-11T18:41:21.763Z,18.65
2023-02-11T18:43:49.289Z,18.67
2023-02-11T18:46:16.767Z,18.68
2023-02-11T18:48:45.032Z,18.69
2023-02-11T18:51:16.155Z,18.70
2023-02-11T18:53:43.516Z,18.71
2023-02-11T18:56:16.195Z,18.70
2023-02-11T18:58:43.703Z,18.73
2023-02-11T19:01:15.053Z,18.71
2023-02-11T19:03:43.815Z,18.73
2023-02-11T19:06:35.240Z,18.74
2023-02-11T19:09:06.926Z,18.75
2023-02-11T19:11:46.934Z,18.75
2023-02-11T19:14:16.664Z,18.75
2023-02-11T19:16:46.023Z,18.76
2023-02-11T19:19:14.050Z,18.76
2023-02-11T19:21:43.694Z,18.78
2023-02-11T19:24:12.571Z,18.78
2023-02-11T19:26:39.928Z,18.78
2023-02-11T19:29:07.441Z,18.79
2023-02-11T19:31:37.483Z,18.79
2023-02-11T19:34:05.483Z,18.79
2023-02-11T19:36:36.295Z,18.80
2023-02-11T19:39:05.096Z,18.80
2023-02-11T19:41:33.739Z,18.81
2023-02-11T19:44:01.946Z,18.82
2023-02-11T19:46:32.508Z,18.82
2023-02-11T19:49:00.794Z,18.83
2023-02-11T19:51:28.650Z,18.84
2023-02-11T19:53:58.128Z,18.84
2023-02-11T19:56:25.459Z,18.84
2023-02-11T19:58:52.719Z,18.85
2023-02-11T20:01:22.231Z,18.84
2023-02-11T20:03:51.566Z,18.85
2023-02-11T20:06:24.757Z,18.85
2023-02-11T20:08:59.289Z,18.86
2023-02-11T20:11:28.999Z,18.87
2023-02-11T20:13:56.975Z,18.87
2023-02-11T20:16:40.650Z,18.88
2023-02-11T20:19:16.868Z,18.88
2023-02-11T20:21:47.071Z,18.88
2023-02-11T20:24:19.133Z,18.90
2023-02-11T20:26:48.338Z,18.90
2023-02-11T20:29:17.867Z,18.90
2023-02-11T20:31:45.668Z,18.90
2023-02-11T20:34:13.462Z,18.91
2023-02-11T20:36:41.250Z,18.92
2023-02-11T20:39:10.417Z,18.92
2023-02-11T20:41:41.111Z,18.92
2023-02-11T20:44:10.959Z,18.92
2023-02-11T20:46:41.762Z,18.92
2023-02-11T20:49:14.182Z,18.94
2023-02-11T20:51:41.713Z,18.94
2023-02-11T20:54:12.885Z,18.93
2023-02-11T20:56:40.233Z,18.94
2023-02-11T20:59:07.860Z,18.93
2023-02-11T21:01:37.910Z,18.94
2023-02-11T21:04:08.334Z,18.93
2023-02-11T21:06:39.455Z,18.93
2023-02-11T21:09:08.724Z,18.93
2023-02-11T21:11:36.066Z,18.94
2023-02-11T21:14:03.564Z,18.95
2023-02-11T21:16:31.635Z,18.94
2023-02-11T21:19:00.545Z,18.94
2023-02-11T21:21:27.810Z,18.94
2023-02-11T21:23:56.183Z,18.95
2023-02-11T21:26:23.486Z,18.95
2023-02-11T21:28:51.995Z,18.95
2023-02-11T21:31:27.068Z,18.96
2023-02-11T21:33:55.575Z,18.96
2023-02-11T21:36:23.978Z,18.96
2023-02-11T21:38:52.021Z,18.95
2023-02-11T21:41:22.401Z,18.94
2023-02-11T21:43:50.901Z,18.95
2023-02-11T21:46:19.436Z,18.96
2023-02-11T21:48:47.233Z,18.96
2023-02-11T21:51:23.495Z,18.96
2023-02-11T21:53:55.017Z,18.96
2023-02-11T21:56:22.704Z,18.96
2023-02-11T21:58:53.409Z,18.97
2023-02-11T22:01:23.512Z,18.96
2023-02-11T22:03:50.963Z,18.96
2023-02-11T22:06:27.224Z,18.96
2023-02-11T22:08:55.392Z,18.96
2023-02-11T22:11:23.760Z,18.96
2023-02-11T22:13:55.553Z,18.95
2023-02-11T22:16:23.890Z,18.96
2023-02-11T22:18:51.889Z,18.97
2023-02-11T22:21:21.802Z,18.96
2023-02-11T22:23:49.986Z,18.97
2023-02-11T22:26:21.275Z,18.96
2023-02-11T22:28:49.622Z,18.97
2023-02-11T22:31:19.681Z,18.97
2023-02-11T22:33:47.385Z,18.97
2023-02-11T22:36:21.301Z,18.97
2023-02-11T22:38:49.577Z,18.98
2023-02-11T22:41:17.858Z,18.97
2023-02-11T22:43:45.657Z,18.99
2023-02-11T22:46:15.794Z,18.99
2023-02-11T22:48:43.947Z,18.99
2023-02-11T22:51:16.946Z,18.99
2023-02-11T22:53:44.551Z,18.97
2023-02-11T22:56:15.606Z,18.97
2023-02-11T22:58:43.550Z,18.97
2023-02-11T23:01:12.825Z,18.97
2023-02-11T23:03:40.543Z,18.97
2023-02-11T23:06:09.045Z,18.97
2023-02-11T23:08:39.210Z,18.98
2023-02-11T23:11:09.774Z,18.99
2023-02-11T23:13:39.563Z,18.99
2023-02-11T23:16:09.596Z,18.98
2023-02-11T23:18:39.315Z,18.98
2023-02-11T23:21:28.008Z,18.98
2023-02-11T23:23:57.837Z,18.99
2023-02-11T23:26:25.835Z,18.98
2023-02-11T23:28:53.615Z,18.99
2023-02-11T23:31:22.654Z,18.99
2023-02-11T23:33:51.278Z,19.01
2023-02-11T23:36:19.749Z,19.00
2023-02-11T23:38:47.670Z,19.00
2023-02-11T23:41:15.958Z,19.01
2023-02-11T23:43:43.899Z,19.00
2023-02-11T23:46:11.472Z,18.99
2023-02-11T23:48:40.420Z,19.00
2023-02-11T23:51:09.788Z,19.01
2023-02-11T23:53:38.580Z,18.99
2023-02-11T23:56:08.784Z,19.00
2023-02-11T23:58:36.412Z,18.99
